Time;durP1;ratioP1;P1;durP2;ratioP2;P2;SDS_P1;SDS_P2;PMS_P1;PMS_P2;Temp;Humidity;BMP_temperature;BMP_pressure;BME280_temperature;BME280_humidity;BME280_pressure;Samples;Min_cycle;Max_cycle;Signal;HPM_P1;HPM_P2
2021/07/23 00:00:59;;;;;;;7.07;5.30;;;15.50;99.90;;;;;;5029332;28;20234;-87
2021/07/23 00:03:26;;;;;;;8.47;5.70;;;15.40;99.90;;;;;;5028771;28;20202;-88
2021/07/23 00:05:55;;;;;;;6.60;5.90;;;15.40;99.90;;;;;;5030444;28;20207;-86
2021/07/23 00:08:22;;;;;;;8.30;6.10;;;15.40;99.90;;;;;;5029225;28;20238;-87
2021/07/23 00:10:49;;;;;;;6.50;5.57;;;15.40;99.90;;;;;;5031210;28;20214;-88
2021/07/23 00:13:16;;;;;;;6.10;5.10;;;15.30;99.90;;;;;;5037769;28;20305;-90
2021/07/23 00:15:43;;;;;;;8.50;6.80;;;15.30;99.90;;;;;;5053311;28;20614;-85
2021/07/23 00:18:09;;;;;;;8.07;6.32;;;15.30;99.90;;;;;;5039777;28;20213;-89
2021/07/23 00:20:36;;;;;;;6.23;5.20;;;15.30;99.90;;;;;;5030870;28;20194;-87
2021/07/23 00:23:05;;;;;;;8.10;6.40;;;15.30;99.90;;;;;;5031009;28;20206;-90
2021/07/23 00:25:31;;;;;;;7.17;5.37;;;15.30;99.90;;;;;;5031835;28;20206;-85
2021/07/23 00:27:59;;;;;;;8.18;6.40;;;15.30;99.90;;;;;;5031926;28;20206;-86
2021/07/23 00:30:26;;;;;;;6.85;5.78;;;15.30;99.90;;;;;;5032236;28;20591;-88
2021/07/23 00:32:53;;;;;;;7.55;6.75;;;15.30;99.90;;;;;;5031188;28;20606;-87
2021/07/23 00:35:20;;;;;;;7.17;6.17;;;15.40;99.90;;;;;;5031218;28;20246;-88
2021/07/23 00:37:47;;;;;;;7.03;5.90;;;15.40;99.90;;;;;;5031465;28;20898;-90
2021/07/23 00:40:16;;;;;;;5.95;5.32;;;15.50;99.90;;;;;;5032446;28;20207;-90
2021/07/23 00:42:44;;;;;;;7.83;6.90;;;15.50;99.90;;;;;;5031727;28;20692;-89
2021/07/23 00:45:12;;;;;;;10.03;6.73;;;15.50;99.90;;;;;;5032161;28;20203;-90
2021/07/23 00:47:40;;;;;;;7.95;7.15;;;15.60;99.90;;;;;;5018472;28;20235;-86
2021/07/23 00:50:08;;;;;;;9.00;6.70;;;15.60;99.90;;;;;;5012865;28;20207;-85
2021/07/23 00:52:36;;;;;;;6.87;5.87;;;15.60;99.90;;;;;;5011360;28;20207;-84
2021/07/23 00:55:03;;;;;;;8.48;6.10;;;15.70;99.90;;;;;;5010952;28;20227;-87
2021/07/23 00:57:33;;;;;;;7.78;5.82;;;15.70;99.90;;;;;;5010615;28;20207;-90
2021/07/23 01:00:01;;;;;;;7.10;6.40;;;15.80;99.90;;;;;;5011411;28;20213;-90
2021/07/23 01:02:28;;;;;;;7.20;6.40;;;15.80;99.90;;;;;;5011909;28;20655;-91
2021/07/23 01:04:55;;;;;;;6.80;5.75;;;15.90;99.90;;;;;;5011856;28;20511;-89
2021/07/23 01:07:22;;;;;;;6.68;5.57;;;15.90;99.90;;;;;;5012328;28;20195;-88
2021/07/23 01:09:49;;;;;;;7.13;5.78;;;16.00;99.90;;;;;;5011764;28;20902;-85
2021/07/23 01:12:17;;;;;;;7.15;6.00;;;16.00;99.90;;;;;;5012878;28;20241;-87
2021/07/23 01:14:46;;;;;;;6.22;5.30;;;16.00;99.90;;;;;;5009676;28;20270;-86
2021/07/23 01:17:12;;;;;;;6.50;5.63;;;16.00;99.90;;;;;;5007401;28;20199;-86
2021/07/23 01:19:46;;;;;;;7.40;6.55;;;16.10;99.90;;;;;;5019946;28;20218;-87
2021/07/23 01:22:14;;;;;;;7.18;5.85;;;16.10;99.90;;;;;;5013517;28;20215;-87
2021/07/23 01:24:42;;;;;;;6.60;5.90;;;16.10;99.90;;;;;;5007002;28;20199;-87
2021/07/23 01:27:10;;;;;;;8.55;6.90;;;16.10;99.90;;;;;;5010154;28;20894;-87
2021/07/23 01:29:36;;;;;;;7.45;6.22;;;16.20;99.90;;;;;;5011051;28;20199;-88
2021/07/23 01:32:04;;;;;;;7.75;6.95;;;16.20;99.90;;;;;;5010719;28;20215;-90
2021/07/23 01:34:33;;;;;;;7.65;6.15;;;16.30;99.90;;;;;;5010428;28;20227;-87
2021/07/23 01:37:00;;;;;;;8.43;6.78;;;16.30;99.90;;;;;;5013101;28;20210;-91
2021/07/23 01:39:27;;;;;;;7.00;6.22;;;16.30;99.90;;;;;;5031868;28;20213;-90
2021/07/23 01:41:56;;;;;;;8.40;6.97;;;16.30;99.90;;;;;;5032136;28;20206;-90
2021/07/23 01:44:22;;;;;;;7.07;6.38;;;16.30;99.90;;;;;;5031891;28;20852;-91
2021/07/23 01:46:49;;;;;;;7.22;6.55;;;16.30;99.90;;;;;;5036659;28;20245;-90
2021/07/23 01:49:16;;;;;;;8.20;7.25;;;16.30;99.90;;;;;;5046827;28;20213;-89
2021/07/23 01:51:43;;;;;;;7.32;6.63;;;16.40;99.90;;;;;;5041920;28;20213;-90
2021/07/23 01:54:10;;;;;;;7.88;6.50;;;16.40;99.90;;;;;;5030990;28;20226;-91
2021/07/23 01:56:37;;;;;;;9.52;7.97;;;16.40;99.90;;;;;;5031374;28;20202;-90
2021/07/23 01:59:06;;;;;;;7.85;7.15;;;16.40;99.90;;;;;;5031338;28;20289;-89
2021/07/23 02:01:32;;;;;;;7.78;6.15;;;16.40;99.90;;;;;;5030882;28;20218;-90
2021/07/23 02:03:59;;;;;;;6.70;5.97;;;16.40;99.90;;;;;;5030254;28;20199;-91
2021/07/23 02:06:26;;;;;;;9.20;6.90;;;16.40;99.90;;;;;;5031088;28;20210;-90
2021/07/23 02:08:53;;;;;;;7.45;6.75;;;16.40;99.90;;;;;;5030781;28;20202;-90
2021/07/23 02:11:20;;;;;;;7.55;6.82;;;16.40;99.90;;;;;;5031469;28;20225;-91
2021/07/23 02:13:46;;;;;;;7.25;6.55;;;16.40;99.90;;;;;;5030608;28;20210;-91
2021/07/23 02:16:15;;;;;;;7.25;6.55;;;16.40;99.90;;;;;;5031106;28;20230;-91
2021/07/23 02:18:41;;;;;;;7.43;6.65;;;16.50;99.90;;;;;;5030029;28;20203;-89
2021/07/23 02:21:08;;;;;;;8.40;7.60;;;16.50;99.90;;;;;;5031871;28;20207;-91
2021/07/23 02:23:35;;;;;;;7.88;7.07;;;16.50;99.90;;;;;;5029911;28;20253;-90
2021/07/23 02:26:02;;;;;;;7.63;6.82;;;16.50;99.90;;;;;;5030522;28;20217;-91
2021/07/23 02:28:29;;;;;;;7.35;6.00;;;16.50;99.90;;;;;;5033620;28;20194;-91
2021/07/23 02:30:56;;;;;;;8.73;6.53;;;16.50;99.90;;;;;;5034377;28;20203;-89
2021/07/23 02:33:25;;;;;;;8.10;6.85;;;16.60;99.90;;;;;;5033586;28;20286;-89
2021/07/23 02:35:52;;;;;;;10.27;7.43;;;16.60;99.90;;;;;;5050034;28;20233;-91
2021/07/23 02:38:18;;;;;;;7.07;6.38;;;16.60;99.90;;;;;;5050393;28;20233;-88
2021/07/23 02:40:45;;;;;;;8.32;6.57;;;16.60;99.90;;;;;;5049043;28;20213;-86
2021/07/23 02:43:12;;;;;;;7.72;6.93;;;16.60;99.90;;;;;;5033627;28;20365;-87
2021/07/23 02:45:39;;;;;;;8.98;7.45;;;16.70;99.90;;;;;;5034871;28;20214;-87
2021/07/23 02:48:07;;;;;;;8.73;7.03;;;16.70;99.90;;;;;;5034687;28;20240;-85
2021/07/23 02:50:35;;;;;;;9.10;7.43;;;16.70;99.90;;;;;;5034496;28;20221;-90
2021/07/23 02:53:03;;;;;;;8.52;7.70;;;16.70;99.90;;;;;;5034426;28;20210;-87
2021/07/23 02:55:30;;;;;;;9.30;8.18;;;16.70;99.90;;;;;;5033718;28;20276;-88
2021/07/23 02:57:57;;;;;;;8.27;7.43;;;16.70;99.90;;;;;;5043817;28;20222;-86
2021/07/23 03:00:24;;;;;;;9.45;7.80;;;16.70;99.90;;;;;;5054314;28;20202;-87
2021/07/23 03:02:50;;;;;;;8.52;7.70;;;16.70;99.90;;;;;;5052007;28;20209;-87
2021/07/23 03:05:18;;;;;;;8.57;7.57;;;16.70;99.90;;;;;;5034236;28;20206;-89
2021/07/23 03:07:46;;;;;;;10.23;8.65;;;16.70;99.90;;;;;;5033555;28;20213;-87
2021/07/23 03:10:13;;;;;;;10.00;8.57;;;16.80;99.90;;;;;;5056099;28;20228;-86
2021/07/23 03:12:40;;;;;;;9.00;8.10;;;16.80;99.90;;;;;;5056566;28;20241;-89
2021/07/23 03:15:07;;;;;;;8.23;7.43;;;16.70;99.90;;;;;;5037156;28;20234;-90
2021/07/23 03:17:34;;;;;;;10.23;9.23;;;16.70;99.90;;;;;;5034943;28;20207;-88
2021/07/23 03:20:02;;;;;;;11.85;8.65;;;16.80;99.90;;;;;;5034062;28;20210;-89
2021/07/23 03:22:29;;;;;;;9.00;8.02;;;16.80;99.90;;;;;;5033156;28;20202;-91
2021/07/23 03:24:57;;;;;;;11.07;9.23;;;16.80;99.90;;;;;;5031622;28;20195;-87
2021/07/23 03:27:24;;;;;;;9.68;8.32;;;16.80;99.90;;;;;;5032861;28;20227;-84
2021/07/23 03:29:51;;;;;;;10.43;7.50;;;16.80;99.90;;;;;;5040691;28;20206;-86
2021/07/23 03:32:18;;;;;;;12.20;8.35;;;16.80;99.90;;;;;;5052004;28;20206;-87
2021/07/23 03:34:44;;;;;;;10.32;7.72;;;16.80;99.90;;;;;;5050342;28;20225;-86
2021/07/23 03:37:11;;;;;;;8.77;7.85;;;16.80;99.90;;;;;;5051449;28;20206;-85
2021/07/23 03:39:38;;;;;;;9.38;7.70;;;16.80;99.90;;;;;;5050986;28;20396;-86
2021/07/23 03:42:06;;;;;;;9.73;6.93;;;16.80;99.90;;;;;;5041651;28;20207;-86
2021/07/23 03:44:33;;;;;;;7.82;6.82;;;16.80;99.90;;;;;;5030784;28;20292;-86
2021/07/23 03:47:00;;;;;;;8.50;6.80;;;16.90;99.90;;;;;;5031509;28;20241;-84
2021/07/23 03:49:27;;;;;;;8.90;6.80;;;16.90;99.90;;;;;;5042945;28;20221;-85
2021/07/23 03:51:53;;;;;;;7.32;6.57;;;16.90;99.90;;;;;;5050009;28;20667;-88
2021/07/23 03:54:20;;;;;;;9.77;7.32;;;16.80;99.90;;;;;;5031091;28;20206;-88
2021/07/23 03:56:47;;;;;;;8.60;6.60;;;16.90;99.90;;;;;;5030643;28;20580;-87
2021/07/23 03:59:15;;;;;;;8.60;6.60;;;16.90;99.90;;;;;;5033580;28;20218;-87
2021/07/23 04:01:42;;;;;;;10.43;6.85;;;16.90;99.90;;;;;;5033652;28;20225;-88
2021/07/23 04:04:09;;;;;;;6.93;5.97;;;16.90;99.90;;;;;;5033024;28;20194;-85
2021/07/23 04:06:36;;;;;;;10.85;6.65;;;16.90;99.90;;;;;;5053019;28;20208;-85
2021/07/23 04:09:03;;;;;;;6.72;5.78;;;16.90;99.90;;;;;;5074043;28;20201;-87
2021/07/23 04:11:34;;;;;;;6.47;5.80;;;17.00;99.90;;;;;;5072611;28;20284;-86
2021/07/23 04:14:00;;;;;;;6.38;5.78;;;17.00;99.90;;;;;;5071405;28;20193;-86
2021/07/23 04:16:29;;;;;;;6.47;4.72;;;17.00;99.90;;;;;;5060502;28;20236;-89
2021/07/23 04:18:55;;;;;;;7.93;5.15;;;17.00;99.90;;;;;;5051246;28;20202;-88
2021/07/23 04:21:22;;;;;;;8.38;5.28;;;17.00;99.90;;;;;;5050564;28;20492;-89
2021/07/23 04:23:49;;;;;;;6.25;5.07;;;17.00;99.90;;;;;;5040216;28;20493;-86
2021/07/23 04:26:16;;;;;;;6.45;4.68;;;17.10;99.90;;;;;;5030890;28;20202;-86
2021/07/23 04:28:43;;;;;;;9.95;5.38;;;17.10;99.90;;;;;;5029654;28;20424;-86
2021/07/23 04:31:09;;;;;;;6.60;5.10;;;17.10;99.90;;;;;;5030105;28;22248;-84
2021/07/23 04:33:38;;;;;;;7.70;5.47;;;17.20;99.90;;;;;;5029695;28;20210;-87
2021/07/23 04:36:05;;;;;;;8.65;5.47;;;17.20;99.90;;;;;;5030470;28;20428;-86
2021/07/23 04:38:31;;;;;;;6.93;4.90;;;17.20;99.90;;;;;;5030457;28;20193;-90
2021/07/23 04:40:58;;;;;;;8.68;4.88;;;17.10;99.90;;;;;;5029819;28;20225;-87
2021/07/23 04:43:25;;;;;;;8.05;5.28;;;17.20;99.90;;;;;;5029675;28;20204;-86
2021/07/23 04:45:52;;;;;;;6.53;4.50;;;17.20;99.90;;;;;;5029895;28;20207;-89
2021/07/23 04:48:19;;;;;;;6.07;4.65;;;17.30;99.90;;;;;;5029325;28;20269;-83
2021/07/23 04:50:47;;;;;;;6.70;4.75;;;17.30;99.90;;;;;;5028675;28;20208;-83
2021/07/23 04:53:13;;;;;;;6.13;4.80;;;17.30;99.90;;;;;;5029401;28;20203;-86
2021/07/23 04:55:40;;;;;;;7.65;5.00;;;17.20;99.90;;;;;;5029597;28;20227;-86
2021/07/23 04:58:07;;;;;;;6.07;4.95;;;17.30;99.90;;;;;;5030626;28;20515;-86
2021/07/23 05:00:34;;;;;;;6.15;5.07;;;17.30;99.90;;;;;;5029352;28;20207;-89
2021/07/23 05:03:01;;;;;;;5.80;4.93;;;17.30;99.90;;;;;;5029185;28;20215;-86
2021/07/23 05:05:30;;;;;;;8.80;5.03;;;17.40;99.90;;;;;;5030254;28;20214;-89
2021/07/23 05:07:58;;;;;;;5.90;4.80;;;17.40;99.90;;;;;;5029209;28;20202;-85
2021/07/23 05:10:25;;;;;;;6.63;5.32;;;17.40;99.90;;;;;;5029955;28;20205;-88
2021/07/23 05:12:52;;;;;;;7.93;4.80;;;17.40;99.90;;;;;;5028606;28;20618;-84
2021/07/23 05:15:18;;;;;;;6.22;4.40;;;17.40;99.90;;;;;;5048057;28;20234;-83
2021/07/23 05:17:45;;;;;;;5.72;4.07;;;17.50;99.90;;;;;;5055911;28;20202;-85
2021/07/23 05:20:13;;;;;;;5.00;4.50;;;17.40;99.90;;;;;;5033410;28;20198;-87
2021/07/23 05:22:40;;;;;;;8.00;5.20;;;17.50;99.90;;;;;;5031286;28;20206;-86
2021/07/23 05:25:11;;;;;;;5.47;4.97;;;17.50;99.90;;;;;;5044547;28;20206;-85
2021/07/23 05:27:38;;;;;;;6.25;4.60;;;17.60;99.90;;;;;;5050213;28;20189;-82
2021/07/23 05:30:06;;;;;;;5.32;4.50;;;17.60;99.90;;;;;;5049599;28;20208;-84
2021/07/23 05:32:33;;;;;;;7.03;4.68;;;17.60;99.90;;;;;;5048361;28;20198;-87
2021/07/23 05:35:00;;;;;;;8.35;5.45;;;17.60;99.90;;;;;;5030150;28;20238;-87
2021/07/23 05:37:27;;;;;;;9.48;5.18;;;17.60;99.90;;;;;;5029247;28;20313;-88
2021/07/23 05:39:54;;;;;;;6.28;5.35;;;17.70;99.90;;;;;;5028158;28;20253;-83
2021/07/23 05:42:22;;;;;;;7.15;5.28;;;17.70;99.90;;;;;;5028624;28;20206;-84
2021/07/23 05:44:49;;;;;;;6.07;4.57;;;17.70;99.90;;;;;;5028540;28;20647;-88
2021/07/23 05:47:15;;;;;;;6.32;5.00;;;17.70;99.90;;;;;;5028532;28;20552;-85
2021/07/23 05:49:42;;;;;;;7.75;4.97;;;17.80;99.90;;;;;;5027987;28;20551;-87
2021/07/23 05:52:09;;;;;;;6.47;4.70;;;17.80;99.90;;;;;;5029455;28;20573;-85
2021/07/23 05:54:36;;;;;;;6.30;4.63;;;17.80;99.90;;;;;;5029415;28;20206;-86
2021/07/23 05:57:04;;;;;;;5.85;4.35;;;17.80;99.90;;;;;;5028872;28;20321;-85
2021/07/23 05:59:32;;;;;;;6.85;5.07;;;17.90;99.90;;;;;;5027053;28;20207;-87
2021/07/23 06:01:59;;;;;;;6.60;5.20;;;17.90;99.90;;;;;;5029611;28;20198;-85
2021/07/23 06:04:26;;;;;;;5.70;4.45;;;17.90;99.90;;;;;;5030513;28;20664;-87
2021/07/23 06:06:53;;;;;;;5.65;4.65;;;18.00;99.90;;;;;;5030549;28;20280;-86
2021/07/23 06:09:19;;;;;;;6.50;5.50;;;18.10;99.90;;;;;;5035690;28;20218;-85
2021/07/23 06:11:46;;;;;;;7.35;5.10;;;18.10;99.90;;;;;;5050735;28;20574;-86
2021/07/23 06:14:13;;;;;;;5.28;4.78;;;18.20;99.90;;;;;;5050736;28;20205;-88
2021/07/23 06:16:42;;;;;;;5.80;5.20;;;18.30;99.90;;;;;;5142473;23;20245;-87
2021/07/23 06:19:09;;;;;;;7.25;5.85;;;18.30;99.90;;;;;;5071090;28;20275;-88
2021/07/23 06:21:36;;;;;;;6.70;5.50;;;18.40;99.90;;;;;;5052805;28;20890;-84
2021/07/23 06:24:03;;;;;;;6.50;5.32;;;18.40;99.90;;;;;;5051813;28;20202;-86
2021/07/23 06:26:30;;;;;;;5.97;5.38;;;18.50;99.90;;;;;;5050657;28;20210;-83
2021/07/23 06:28:57;;;;;;;7.60;5.70;;;18.60;99.90;;;;;;5050676;28;20194;-85
2021/07/23 06:31:24;;;;;;;8.07;5.85;;;18.70;99.90;;;;;;5050654;28;20209;-87
2021/07/23 06:33:52;;;;;;;6.22;5.60;;;18.70;99.90;;;;;;5051159;28;20228;-86
2021/07/23 06:36:19;;;;;;;7.15;5.68;;;18.80;99.90;;;;;;5052885;28;20238;-86
2021/07/23 06:38:45;;;;;;;6.85;5.15;;;18.80;99.90;;;;;;5059024;28;20221;-87
2021/07/23 06:41:12;;;;;;;7.78;5.60;;;18.90;99.90;;;;;;5057268;28;20217;-83
2021/07/23 06:43:41;;;;;;;5.82;5.28;;;19.00;99.90;;;;;;5044535;28;20212;-86
2021/07/23 06:46:08;;;;;;;9.23;4.80;;;19.00;99.90;;;;;;5052465;28;20211;-86
2021/07/23 06:48:36;;;;;;;6.78;5.55;;;19.00;99.90;;;;;;5052265;28;20186;-86
2021/07/23 06:51:05;;;;;;;5.80;4.90;;;19.10;99.90;;;;;;5052203;28;20654;-88
2021/07/23 06:53:32;;;;;;;8.10;5.25;;;19.20;99.90;;;;;;5049907;28;20598;-87
2021/07/23 06:55:59;;;;;;;6.10;5.43;;;19.30;99.90;;;;;;5048533;28;20232;-89
2021/07/23 06:58:25;;;;;;;6.57;5.85;;;19.40;99.90;;;;;;5052255;28;20202;-87
2021/07/23 07:00:52;;;;;;;5.95;5.28;;;19.50;99.90;;;;;;5051886;28;20883;-89
2021/07/23 07:03:19;;;;;;;6.25;5.43;;;19.50;99.90;;;;;;5053591;28;20508;-87
2021/07/23 07:05:50;;;;;;;10.35;5.70;;;19.50;99.90;;;;;;5053375;28;20202;-89
2021/07/23 07:08:18;;;;;;;6.20;5.60;;;19.60;99.90;;;;;;5052953;28;20201;-89
2021/07/23 07:10:45;;;;;;;5.35;4.85;;;19.70;99.90;;;;;;5053125;28;20202;-86
2021/07/23 07:13:12;;;;;;;9.95;5.70;;;19.80;99.90;;;;;;5068688;28;20514;-89
2021/07/23 07:15:41;;;;;;;5.68;5.10;;;19.90;99.90;;;;;;5051657;28;20238;-88
2021/07/23 07:18:08;;;;;;;8.38;5.30;;;19.90;99.90;;;;;;5052427;28;20238;-89
2021/07/23 07:20:35;;;;;;;10.27;5.47;;;20.00;99.90;;;;;;5051755;28;20190;-89
2021/07/23 07:23:02;;;;;;;5.47;4.97;;;20.10;99.90;;;;;;5051960;28;20206;-85
2021/07/23 07:25:32;;;;;;;7.07;5.30;;;20.10;99.90;;;;;;5051318;28;20202;-90
2021/07/23 07:28:00;;;;;;;7.25;5.13;;;20.30;99.90;;;;;;5050424;28;20225;-90
2021/07/23 07:30:27;;;;;;;7.47;5.18;;;20.40;99.90;;;;;;5050132;28;20210;-82
2021/07/23 07:32:53;;;;;;;6.97;5.32;;;20.40;99.90;;;;;;5052777;28;20205;-84
2021/07/23 07:35:20;;;;;;;6.50;5.60;;;20.50;99.90;;;;;;5069820;28;20307;-86
2021/07/23 07:37:47;;;;;;;6.47;5.55;;;20.50;99.90;;;;;;5069868;28;20228;-86
2021/07/23 07:40:14;;;;;;;7.18;5.53;;;20.40;99.90;;;;;;5063801;28;20205;-82
2021/07/23 07:42:43;;;;;;;7.55;5.70;;;20.50;99.90;;;;;;5049425;28;20263;-84
2021/07/23 07:45:10;;;;;;;6.82;5.60;;;20.30;99.90;;;;;;5049273;28;20205;-83
2021/07/23 07:47:37;;;;;;;7.25;5.55;;;20.40;99.90;;;;;;5049208;28;20205;-85
2021/07/23 07:50:05;;;;;;;6.63;5.30;;;20.50;99.90;;;;;;5047734;28;20237;-86
2021/07/23 07:52:32;;;;;;;6.90;5.90;;;20.50;99.90;;;;;;5048794;28;20202;-84
2021/07/23 07:54:58;;;;;;;6.80;6.10;;;20.60;99.90;;;;;;5049178;28;20826;-87
2021/07/23 07:57:25;;;;;;;6.63;5.75;;;20.60;99.90;;;;;;5049868;28;20230;-85
2021/07/23 07:59:54;;;;;;;8.85;6.25;;;20.60;99.90;;;;;;5050961;28;20309;-87
2021/07/23 08:02:20;;;;;;;10.30;5.85;;;20.60;99.90;;;;;;5051433;28;20200;-83
2021/07/23 08:04:47;;;;;;;6.85;6.15;;;20.50;99.90;;;;;;5065362;28;20217;-90
2021/07/23 08:07:19;;;;;;;7.43;6.00;;;20.50;99.90;;;;;;5071172;28;20279;-87
2021/07/23 08:09:50;;;;;;;7.38;6.38;;;20.40;99.90;;;;;;5072321;28;20201;-88
2021/07/23 08:12:17;;;;;;;6.75;5.85;;;20.40;99.90;;;;;;5073468;28;20266;-89
2021/07/23 08:14:44;;;;;;;10.85;6.28;;;20.40;99.90;;;;;;5072924;28;20225;-87
2021/07/23 08:17:12;;;;;;;7.22;6.53;;;20.50;99.90;;;;;;5072919;28;20323;-83
2021/07/23 08:19:39;;;;;;;7.47;6.63;;;20.50;99.90;;;;;;5072260;28;20205;-90
2021/07/23 08:22:07;;;;;;;6.70;6.07;;;20.50;99.90;;;;;;5076901;28;20301;-86
2021/07/23 08:24:34;;;;;;;7.60;5.97;;;20.40;99.90;;;;;;5063092;28;20205;-86
2021/07/23 08:27:01;;;;;;;8.73;6.43;;;20.30;99.90;;;;;;5057029;28;20229;-90
2021/07/23 08:29:28;;;;;;;7.53;6.68;;;20.30;99.90;;;;;;5055627;28;20196;-90
2021/07/23 08:31:55;;;;;;;8.63;7.35;;;20.40;99.90;;;;;;5052652;28;20225;-87
2021/07/23 08:34:23;;;;;;;10.23;7.05;;;20.50;99.90;;;;;;5052699;28;20209;-84
2021/07/23 08:36:51;;;;;;;9.05;7.20;;;20.50;99.90;;;;;;5051213;28;20791;-89
2021/07/23 08:39:18;;;;;;;9.10;7.45;;;20.50;99.90;;;;;;5050671;28;20205;-88
2021/07/23 08:41:45;;;;;;;11.30;7.70;;;20.60;99.90;;;;;;5050807;28;20576;-88
2021/07/23 08:44:16;;;;;;;9.57;7.38;;;20.60;99.90;;;;;;5062805;28;20557;-88
2021/07/23 08:46:43;;;;;;;10.07;7.07;;;20.60;99.90;;;;;;5069747;28;20200;-89
2021/07/23 08:49:09;;;;;;;8.82;6.75;;;20.50;99.90;;;;;;5057141;28;20210;-86
2021/07/23 08:51:38;;;;;;;7.90;7.10;;;20.50;99.90;;;;;;5070689;28;20197;-89
2021/07/23 08:54:07;;;;;;;7.15;6.45;;;20.50;99.90;;;;;;5058713;28;20508;-88
2021/07/23 08:56:33;;;;;;;9.15;7.55;;;20.60;99.90;;;;;;5049152;28;20273;-87
2021/07/23 08:59:00;;;;;;;9.07;7.93;;;20.50;99.90;;;;;;5055703;28;20504;-85
2021/07/23 09:01:27;;;;;;;10.38;7.30;;;20.50;99.90;;;;;;5069378;28;20201;-86
2021/07/23 09:03:55;;;;;;;8.95;7.50;;;20.50;99.90;;;;;;5070239;28;20208;-86
2021/07/23 09:06:23;;;;;;;8.13;7.32;;;20.60;99.90;;;;;;5070373;28;20267;-84
2021/07/23 09:08:53;;;;;;;9.73;8.52;;;20.70;99.90;;;;;;5054763;28;20293;-85
2021/07/23 09:11:28;;;;;;;10.27;8.90;;;20.70;99.90;;;;;;5048697;28;20210;-85
2021/07/23 09:14:13;;;;;;;9.00;8.00;;;20.60;99.90;;;;;;5054460;28;20215;-86
2021/07/23 09:16:40;;;;;;;9.35;8.35;;;20.60;99.90;;;;;;5066706;28;20243;-85
2021/07/23 09:19:07;;;;;;;9.80;8.80;;;20.60;99.90;;;;;;5066103;28;20209;-87
2021/07/23 09:21:38;;;;;;;8.93;7.57;;;20.60;99.90;;;;;;5067641;28;20197;-87
2021/07/23 09:24:07;;;;;;;10.18;8.80;;;20.70;99.90;;;;;;5052920;28;20237;-84
2021/07/23 09:26:42;;;;;;;9.38;8.10;;;20.60;99.90;;;;;;5062827;28;20205;-84
2021/07/23 09:29:09;;;;;;;9.93;8.88;;;20.60;99.90;;;;;;5068376;28;20196;-85
2021/07/23 09:31:36;;;;;;;9.90;8.75;;;20.70;99.90;;;;;;5061373;28;20247;-88
2021/07/23 09:34:04;;;;;;;11.65;9.48;;;20.70;99.90;;;;;;5045444;28;20217;-85
2021/07/23 09:36:32;;;;;;;10.02;8.80;;;20.70;99.90;;;;;;5044456;28;20225;-85
2021/07/23 09:39:04;;;;;;;11.07;8.18;;;20.70;99.90;;;;;;5050150;28;20194;-85
2021/07/23 09:41:36;;;;;;;11.48;9.50;;;20.90;99.90;;;;;;5049521;28;20213;-88
2021/07/23 09:44:05;;;;;;;13.10;9.40;;;21.00;99.90;;;;;;5049924;28;20654;-85
2021/07/23 09:46:34;;;;;;;10.98;8.98;;;21.10;99.90;;;;;;5069652;28;20197;-85
2021/07/23 09:49:03;;;;;;;8.43;7.50;;;21.20;99.90;;;;;;5069405;28;20346;-87
2021/07/23 09:51:30;;;;;;;9.90;8.48;;;21.30;99.90;;;;;;5058857;28;20210;-86
2021/07/23 09:53:58;;;;;;;9.25;8.15;;;21.30;99.90;;;;;;5047807;28;20205;-86
2021/07/23 09:56:27;;;;;;;8.70;7.90;;;21.20;99.90;;;;;;5049202;28;20307;-86
2021/07/23 09:59:10;;;;;;;8.90;8.10;;;21.40;99.90;;;;;;5047415;28;20206;-84
2021/07/23 10:01:41;;;;;;;10.30;8.50;;;21.40;99.90;;;;;;5047339;28;20192;-85
2021/07/23 10:04:20;;;;;;;9.40;8.23;;;21.60;99.90;;;;;;5048225;28;20202;-86
2021/07/23 10:06:54;;;;;;;9.70;8.70;;;21.60;99.90;;;;;;5046426;28;20517;-84
2021/07/23 10:09:26;;;;;;;10.23;9.13;;;21.70;99.90;;;;;;5048714;28;20186;-85
2021/07/23 10:11:55;;;;;;;9.93;8.93;;;21.60;99.90;;;;;;5046318;28;20221;-84
2021/07/23 10:14:29;;;;;;;10.45;9.45;;;21.70;99.90;;;;;;5047311;28;20211;-81
2021/07/23 10:16:56;;;;;;;9.77;8.73;;;21.60;99.90;;;;;;5046344;28;20592;-85
2021/07/23 10:19:23;;;;;;;9.25;8.38;;;21.60;99.90;;;;;;5048256;28;20201;-86
2021/07/23 10:21:54;;;;;;;11.30;8.93;;;21.60;99.90;;;;;;5046906;28;20209;-82
2021/07/23 10:24:21;;;;;;;9.55;8.65;;;21.60;99.90;;;;;;5046033;28;20191;-83
2021/07/23 10:26:48;;;;;;;12.57;8.43;;;21.60;99.90;;;;;;5048344;28;20477;-84
2021/07/23 10:29:15;;;;;;;9.98;8.43;;;21.70;99.90;;;;;;5048400;28;20595;-84
2021/07/23 10:31:44;;;;;;;11.07;9.45;;;21.70;99.90;;;;;;5047436;28;20513;-80
2021/07/23 10:34:11;;;;;;;14.48;8.57;;;21.70;99.90;;;;;;5047562;28;20194;-83
2021/07/23 10:36:40;;;;;;;9.68;8.15;;;21.70;99.90;;;;;;5050207;28;20536;-84
2021/07/23 10:39:17;;;;;;;10.05;9.05;;;21.70;99.90;;;;;;5065371;28;20206;-83
2021/07/23 10:42:34;;;;;;;10.00;8.93;;;21.70;99.90;;;;;;5065432;28;20227;-85
2021/07/23 10:45:01;;;;;;;10.18;9.05;;;21.70;99.90;;;;;;5064975;28;20929;-83
2021/07/23 10:47:43;;;;;;;8.60;7.78;;;21.60;99.90;;;;;;5065390;28;20233;-87
2021/07/23 10:50:12;;;;;;;9.90;8.55;;;21.60;99.90;;;;;;5070585;28;20185;-86
2021/07/23 10:52:39;;;;;;;9.57;8.68;;;21.70;99.90;;;;;;5055769;28;20220;-85
2021/07/23 10:55:23;;;;;;;10.43;9.18;;;21.70;99.90;;;;;;5048651;28;20209;-81
2021/07/23 10:58:41;;;;;;;9.73;8.73;;;21.60;99.90;;;;;;5049970;28;20481;-85
2021/07/23 11:01:08;;;;;;;11.25;8.95;;;21.60;99.90;;;;;;5059945;28;20285;-87
2021/07/23 11:03:51;;;;;;;10.25;8.77;;;21.60;99.90;;;;;;5073044;28;20208;-87
2021/07/23 11:06:19;;;;;;;9.98;8.98;;;21.70;99.90;;;;;;5072213;28;20212;-85
2021/07/23 11:08:51;;;;;;;10.57;9.48;;;21.80;99.90;;;;;;5071569;28;20285;-84
2021/07/23 11:11:19;;;;;;;12.07;9.88;;;21.80;99.90;;;;;;5071621;28;20492;-83
2021/07/23 11:13:46;;;;;;;10.30;9.30;;;21.70;99.90;;;;;;5054052;28;20202;-85
2021/07/23 11:16:14;;;;;;;12.93;10.13;;;21.60;99.90;;;;;;5050971;28;20218;-82
2021/07/23 11:18:53;;;;;;;10.88;9.52;;;21.50;99.90;;;;;;5049300;28;20241;-91
2021/07/23 11:21:21;;;;;;;10.00;9.00;;;21.60;99.90;;;;;;5051053;28;20212;-85
2021/07/23 11:23:48;;;;;;;9.85;8.93;;;21.60;99.90;;;;;;5051478;28;20294;-86
2021/07/23 11:26:23;;;;;;;11.60;9.57;;;21.60;99.90;;;;;;5050935;28;20208;-81
2021/07/23 11:28:51;;;;;;;10.75;9.40;;;21.60;99.90;;;;;;5049622;28;20229;-84
2021/07/23 11:31:31;;;;;;;10.85;9.82;;;21.40;99.90;;;;;;5050920;28;20214;-80
2021/07/23 11:34:00;;;;;;;14.48;10.52;;;21.40;99.90;;;;;;5049843;28;20209;-85
2021/07/23 11:36:35;;;;;;;10.93;9.82;;;21.30;99.90;;;;;;5049636;28;20785;-88
2021/07/23 11:39:03;;;;;;;12.48;10.70;;;21.30;99.90;;;;;;5048687;28;20218;-86
2021/07/23 11:41:30;;;;;;;11.90;10.77;;;21.30;99.90;;;;;;5049512;28;20217;-86
2021/07/23 11:44:06;;;;;;;12.38;10.98;;;21.30;99.90;;;;;;5051359;28;20206;-85
2021/07/23 11:46:33;;;;;;;14.85;11.85;;;21.30;99.90;;;;;;5050650;28;20225;-87
2021/07/23 11:49:01;;;;;;;13.55;12.20;;;21.30;99.90;;;;;;5050522;28;20205;-82
2021/07/23 11:51:41;;;;;;;12.00;10.73;;;21.20;99.90;;;;;;5050688;28;20204;-83
2021/07/23 11:54:08;;;;;;;12.65;11.02;;;21.30;99.90;;;;;;5063321;28;20211;-84
2021/07/23 11:56:35;;;;;;;12.13;10.93;;;21.40;99.90;;;;;;5070813;28;20659;-86
2021/07/23 11:59:04;;;;;;;11.45;10.35;;;21.30;99.90;;;;;;5072591;28;20590;-87
2021/07/23 12:01:37;;;;;;;12.57;11.30;;;21.30;99.90;;;;;;5072268;28;20201;-86
2021/07/23 12:04:07;;;;;;;12.40;11.15;;;21.40;99.90;;;;;;5056125;28;20216;-86
2021/07/23 12:06:36;;;;;;;14.68;11.13;;;21.30;99.90;;;;;;5066113;28;20224;-82
2021/07/23 12:09:07;;;;;;;10.90;9.82;;;21.40;99.90;;;;;;5071499;28;20221;-88
2021/07/23 12:11:34;;;;;;;12.95;11.65;;;21.70;99.90;;;;;;5066603;28;20197;-87
2021/07/23 12:14:07;;;;;;;11.80;10.60;;;21.80;99.90;;;;;;5072571;28;20476;-90
2021/07/23 12:16:35;;;;;;;11.63;9.77;;;21.90;99.90;;;;;;5071818;28;20227;-90
2021/07/23 12:19:08;;;;;;;11.60;10.32;;;22.10;99.90;;;;;;5071734;28;20228;-89
2021/07/23 12:21:37;;;;;;;10.38;9.40;;;22.10;99.90;;;;;;5065559;28;20887;-90
2021/07/23 12:24:06;;;;;;;12.27;9.23;;;22.10;99.90;;;;;;5050592;28;20223;-84
2021/07/23 12:26:35;;;;;;;9.63;8.65;;;22.10;99.90;;;;;;5051016;28;20220;-90
2021/07/23 12:29:03;;;;;;;8.30;7.50;;;22.20;99.90;;;;;;5050820;28;20240;-89
2021/07/23 12:31:30;;;;;;;7.20;6.50;;;22.70;99.90;;;;;;5049758;28;20217;-90
2021/07/23 12:34:04;;;;;;;7.20;6.50;;;23.00;99.90;;;;;;5050666;28;20213;-90
2021/07/23 12:36:46;;;;;;;7.07;6.38;;;23.50;99.90;;;;;;5050332;28;20209;-89
2021/07/23 12:39:14;;;;;;;7.70;5.90;;;24.00;99.90;;;;;;5050159;28;20221;-84
2021/07/23 12:41:41;;;;;;;6.22;5.72;;;24.40;99.90;;;;;;5050605;28;20225;-91
2021/07/23 12:44:10;;;;;;;7.05;6.32;;;24.70;99.90;;;;;;5050358;28;20259;-84
2021/07/23 12:46:38;;;;;;;8.82;5.70;;;25.00;99.90;;;;;;5046989;28;20205;-83
2021/07/23 12:49:13;;;;;;;6.88;6.18;;;25.20;99.90;;;;;;5049800;28;20625;-85